createdAt,value
2018-09-21T00:00:23.433Z,1001.21
2018-09-21T00:01:23.417Z,1001.22
2018-09-21T00:02:23.466Z,1001.23
2018-09-21T00:03:23.417Z,1001.27
2018-09-21T00:04:23.433Z,1001.23
2018-09-21T00:05:23.424Z,1001.18
2018-09-21T00:06:23.372Z,1001.19
2018-09-21T00:07:23.366Z,1001.18
2018-09-21T00:08:23.276Z,1001.18
2018-09-21T00:09:23.281Z,1001.15
2018-09-21T00:10:23.271Z,1001.15
2018-09-21T00:11:23.244Z,1001.12
2018-09-21T00:12:23.232Z,1001.10
2018-09-21T00:13:23.216Z,1001.15
2018-09-21T00:14:23.222Z,1001.16
2018-09-21T00:15:23.188Z,1001.20
2018-09-21T00:16:23.158Z,1001.13
2018-09-21T00:17:23.128Z,1001.16
2018-09-21T00:18:23.138Z,1001.16
2018-09-21T00:19:23.119Z,1001.22
2018-09-21T00:20:23.092Z,1001.19
2018-09-21T00:21:23.105Z,1001.21
2018-09-21T00:22:23.062Z,1001.20
2018-09-21T00:23:23.041Z,1001.17
2018-09-21T00:24:23.037Z,1001.16
2018-09-21T00:25:23.006Z,1001.16
2018-09-21T00:26:23.010Z,1001.15
2018-09-21T00:27:22.997Z,1001.16
2018-09-21T00:28:22.962Z,1001.15
2018-09-21T00:29:22.950Z,1001.09
2018-09-21T00:30:22.941Z,1001.14
2018-09-21T00:31:22.922Z,1001.13
2018-09-21T00:32:22.921Z,1001.10
2018-09-21T00:33:22.898Z,1001.13
2018-09-21T00:34:22.884Z,1001.11
2018-09-21T00:35:22.858Z,1001.12
2018-09-21T00:36:22.873Z,1001.11
2018-09-21T00:37:22.837Z,1001.12
2018-09-21T00:38:22.820Z,1001.07
2018-09-21T00:39:22.791Z,1001.07
2018-09-21T00:40:22.782Z,1001.05
2018-09-21T00:41:22.772Z,1001.05
2018-09-21T00:42:22.790Z,1001.01
2018-09-21T00:43:22.754Z,1001.00
2018-09-21T00:44:22.732Z,1000.99
2018-09-21T00:45:22.714Z,1000.96
2018-09-21T00:46:22.704Z,1000.96
2018-09-21T00:47:22.676Z,1000.95
2018-09-21T00:48:22.674Z,1000.95
2018-09-21T00:49:22.655Z,1000.95
2018-09-21T00:50:22.639Z,1000.86
2018-09-21T00:51:22.646Z,1000.87
2018-09-21T00:52:22.649Z,1000.90
2018-09-21T00:53:22.667Z,1000.91
2018-09-21T00:54:22.611Z,1000.84
2018-09-21T00:55:22.599Z,1000.82
2018-09-21T00:56:22.605Z,1000.84
2018-09-21T00:57:22.539Z,1000.81
2018-09-21T00:58:22.515Z,1000.78
2018-09-21T00:59:22.493Z,1000.79
2018-09-21T01:00:22.474Z,1000.79
2018-09-21T01:01:22.479Z,1000.75
2018-09-21T01:02:22.437Z,1000.76
2018-09-21T01:03:22.439Z,1000.75
2018-09-21T01:04:22.421Z,1000.77
2018-09-21T01:05:22.395Z,1000.77
2018-09-21T01:06:22.387Z,1000.79
2018-09-21T01:07:22.363Z,1000.75
2018-09-21T01:08:22.350Z,1000.74
2018-09-21T01:09:22.355Z,1000.74
2018-09-21T01:10:22.344Z,1000.74
2018-09-21T01:11:22.295Z,1000.79
2018-09-21T01:12:22.279Z,1000.79
2018-09-21T01:13:22.288Z,1000.73
2018-09-21T01:14:22.288Z,1000.76
2018-09-21T01:15:22.238Z,1000.78
2018-09-21T01:16:22.231Z,1000.73
2018-09-21T01:17:22.201Z,1000.72
2018-09-21T01:18:22.209Z,1000.68
2018-09-21T01:19:22.200Z,1000.68
2018-09-21T01:20:22.166Z,1000.67
2018-09-21T01:21:22.156Z,1000.60
2018-09-21T01:22:22.136Z,1000.58
2018-09-21T01:23:22.138Z,1000.55
2018-09-21T01:24:22.104Z,1000.48
2018-09-21T01:25:22.084Z,1000.53
2018-09-21T01:26:22.077Z,1000.50
2018-09-21T01:27:22.052Z,1000.45
2018-09-21T01:28:22.044Z,1000.45
2018-09-21T01:29:22.011Z,1000.39
2018-09-21T01:30:22.013Z,1000.35
2018-09-21T01:31:21.998Z,1000.37
2018-09-21T01:32:21.968Z,1000.33
2018-09-21T01:33:21.948Z,1000.25
2018-09-21T01:34:21.970Z,1000.23
2018-09-21T01:35:21.948Z,1000.22
2018-09-21T01:36:21.903Z,1000.21
2018-09-21T01:37:21.911Z,1000.16
2018-09-21T01:38:21.915Z,1000.17
2018-09-21T01:39:21.907Z,1000.14
2018-09-21T01:40:21.918Z,1000.12
2018-09-21T01:41:21.897Z,1000.10
2018-09-21T01:42:21.871Z,1000.12
2018-09-21T01:43:21.864Z,1000.13
2018-09-21T01:44:21.851Z,1000.09
2018-09-21T01:45:21.768Z,1000.11
2018-09-21T01:46:21.758Z,1000.05
2018-09-21T01:47:21.734Z,1000.04
2018-09-21T01:48:21.721Z,1000.07
2018-09-21T01:49:21.709Z,1000.02
2018-09-21T01:50:21.731Z,1000.01
2018-09-21T01:51:21.687Z,999.99
2018-09-21T01:52:21.650Z,999.94
2018-09-21T01:53:21.633Z,999.96
2018-09-21T01:54:21.616Z,999.95
2018-09-21T01:55:21.643Z,999.98
2018-09-21T01:56:21.631Z,999.94
2018-09-21T01:57:21.573Z,999.92
2018-09-21T01:58:21.569Z,999.89
2018-09-21T01:59:21.546Z,999.88
2018-09-21T02:00:21.543Z,999.89
2018-09-21T02:01:21.508Z,999.85
2018-09-21T02:02:21.506Z,999.88
2018-09-21T02:03:21.465Z,999.85
2018-09-21T02:04:21.462Z,999.80
2018-09-21T02:05:21.444Z,999.80
2018-09-21T02:06:21.440Z,999.85
2018-09-21T02:07:21.437Z,999.83
2018-09-21T02:08:21.399Z,999.83
2018-09-21T02:09:21.391Z,999.80
2018-09-21T02:10:21.369Z,999.81
2018-09-21T02:11:21.357Z,999.79
2018-09-21T02:12:21.375Z,999.79
2018-09-21T02:13:21.331Z,999.82
2018-09-21T02:14:21.301Z,999.80
2018-09-21T02:15:21.290Z,999.78
2018-09-21T02:16:21.291Z,999.74
2018-09-21T02:17:21.277Z,999.71
2018-09-21T02:18:21.257Z,999.73
2018-09-21T02:19:21.225Z,999.74
2018-09-21T02:20:21.218Z,999.63
2018-09-21T02:21:21.205Z,999.60
2018-09-21T02:22:21.199Z,999.56
2018-09-21T02:23:21.169Z,999.57
2018-09-21T02:24:21.163Z,999.61
2018-09-21T02:25:21.163Z,999.56
2018-09-21T02:26:21.181Z,999.60
2018-09-21T02:27:21.182Z,999.59
2018-09-21T02:28:21.186Z,999.55
2018-09-21T02:29:21.150Z,999.54
2018-09-21T02:30:21.122Z,999.52
2018-09-21T02:31:21.041Z,999.50
2018-09-21T02:32:21.126Z,999.52
2018-09-21T02:33:21.033Z,999.50
2018-09-21T02:34:21.038Z,999.49
2018-09-21T02:35:20.981Z,999.49
2018-09-21T02:36:20.973Z,999.46
2018-09-21T02:37:20.982Z,999.40
2018-09-21T02:38:20.934Z,999.37
2018-09-21T02:39:20.945Z,999.34
2018-09-21T02:40:20.904Z,999.35
2018-09-21T02:41:20.920Z,999.28
2018-09-21T02:42:20.868Z,999.23
2018-09-21T02:43:20.847Z,999.21
2018-09-21T02:44:20.852Z,999.25
2018-09-21T02:45:29.091Z,999.19
2018-09-21T02:46:20.812Z,999.09
2018-09-21T02:47:20.795Z,999.11
2018-09-21T02:48:20.764Z,999.07
2018-09-21T02:49:20.766Z,999.09
2018-09-21T02:50:20.744Z,999.09
2018-09-21T02:51:20.717Z,999.09
2018-09-21T02:52:20.704Z,999.02
2018-09-21T02:53:20.685Z,999.01
2018-09-21T02:54:20.673Z,998.96
2018-09-21T02:55:20.667Z,998.94
2018-09-21T02:56:20.646Z,998.90
2018-09-21T02:57:20.647Z,998.87
2018-09-21T02:58:20.633Z,998.80
2018-09-21T02:59:20.595Z,998.84
2018-09-21T03:00:20.659Z,998.78
2018-09-21T03:01:20.564Z,998.78
2018-09-21T03:02:20.571Z,998.80
2018-09-21T03:03:20.532Z,998.75
2018-09-21T03:04:30.635Z,998.75
2018-09-21T03:05:20.510Z,998.75
2018-09-21T03:06:20.481Z,998.77
2018-09-21T03:07:20.472Z,998.71
2018-09-21T03:08:20.455Z,998.70
2018-09-21T03:09:20.449Z,998.65
2018-09-21T03:10:20.435Z,998.66
2018-09-21T03:11:20.430Z,998.64
2018-09-21T03:12:20.385Z,998.66
2018-09-21T03:13:20.448Z,998.62
2018-09-21T03:14:20.428Z,998.64
2018-09-21T03:15:20.422Z,998.64
2018-09-21T03:16:20.406Z,998.58
2018-09-21T03:17:20.374Z,998.58
2018-09-21T03:18:20.360Z,998.53
2018-09-21T03:19:20.284Z,998.59
2018-09-21T03:20:20.279Z,998.58
2018-09-21T03:21:20.270Z,998.55
2018-09-21T03:22:30.654Z,998.57
2018-09-21T03:23:20.225Z,998.58
2018-09-21T03:24:20.200Z,998.54
2018-09-21T03:25:20.193Z,998.51
2018-09-21T03:26:20.199Z,998.51
2018-09-21T03:27:20.161Z,998.53
2018-09-21T03:28:20.144Z,998.52
2018-09-21T03:29:20.141Z,998.51
2018-09-21T03:30:20.146Z,998.55
2018-09-21T03:31:20.108Z,998.52
2018-09-21T03:32:20.116Z,998.50
2018-09-21T03:33:20.090Z,998.53
2018-09-21T03:34:20.078Z,998.50
2018-09-21T03:35:20.091Z,998.47
2018-09-21T03:36:20.031Z,998.42
2018-09-21T03:37:20.015Z,998.36
2018-09-21T03:38:20.004Z,998.36
2018-09-21T03:39:20.008Z,998.37
2018-09-21T03:40:19.960Z,998.37
2018-09-21T03:41:30.199Z,998.35
2018-09-21T03:42:19.938Z,998.29
2018-09-21T03:43:19.906Z,998.21
2018-09-21T03:44:19.890Z,998.22
2018-09-21T03:45:19.874Z,998.23
2018-09-21T03:46:19.859Z,998.24
2018-09-21T03:47:19.852Z,998.20
2018-09-21T03:48:19.846Z,998.19
2018-09-21T03:49:19.814Z,998.16
2018-09-21T03:50:19.795Z,998.06
2018-09-21T03:51:19.790Z,998.11
2018-09-21T03:52:19.786Z,998.14
2018-09-21T03:53:19.772Z,998.16
2018-09-21T03:54:19.729Z,998.14
2018-09-21T03:55:19.715Z,998.12
2018-09-21T03:56:19.726Z,998.05
2018-09-21T03:57:19.710Z,998.03
2018-09-21T03:58:19.693Z,997.97
2018-09-21T03:59:19.663Z,997.99
2018-09-21T04:00:19.659Z,997.95
2018-09-21T04:01:19.657Z,997.87
2018-09-21T04:02:19.675Z,997.81
2018-09-21T04:03:19.688Z,997.83
2018-09-21T04:04:19.642Z,997.84
2018-09-21T04:05:19.628Z,997.80
2018-09-21T04:06:19.612Z,997.85
2018-09-21T04:07:19.537Z,997.86
2018-09-21T04:08:19.516Z,997.82
2018-09-21T04:09:19.509Z,997.80
2018-09-21T04:10:19.483Z,997.81
2018-09-21T04:11:19.469Z,997.76
2018-09-21T04:12:19.453Z,997.74
2018-09-21T04:13:19.439Z,997.74
2018-09-21T04:14:19.453Z,997.70
2018-09-21T04:15:19.414Z,997.68
2018-09-21T04:16:19.397Z,997.64
2018-09-21T04:17:19.382Z,997.65
2018-09-21T04:18:19.364Z,997.57
2018-09-21T04:19:19.363Z,997.53
2018-09-21T04:20:19.329Z,997.54
2018-09-21T04:21:19.313Z,997.50
2018-09-21T04:22:19.301Z,997.50
2018-09-21T04:23:19.284Z,997.51
2018-09-21T04:24:19.266Z,997.48
2018-09-21T04:25:19.258Z,997.50
2018-09-21T04:26:19.239Z,997.46
2018-09-21T04:27:19.222Z,997.45
2018-09-21T04:28:19.205Z,997.41
2018-09-21T04:29:19.193Z,997.41
2018-09-21T15:35:31.443Z,1003.41
2018-09-21T15:36:31.410Z,1003.33
2018-09-21T15:37:31.403Z,1003.27
2018-09-21T15:38:31.374Z,1003.35
2018-09-21T15:39:31.358Z,1003.26
2018-09-21T15:40:31.339Z,1003.30
2018-09-21T15:41:31.322Z,1003.22
2018-09-21T15:42:31.342Z,1003.28
2018-09-21T15:43:31.368Z,1003.19
2018-09-21T15:44:31.269Z,1003.27
2018-09-21T15:45:31.273Z,1003.20
2018-09-21T15:46:31.276Z,1003.13
2018-09-21T15:47:31.280Z,1003.18
2018-09-21T15:48:31.280Z,1003.09
2018-09-21T15:49:31.246Z,1003.10
2018-09-21T15:50:31.229Z,1003.19
2018-09-21T15:51:31.153Z,1003.18
2018-09-21T15:52:31.140Z,1003.20
2018-09-21T15:53:31.153Z,1003.42
2018-09-21T15:54:31.109Z,1003.24
2018-09-21T15:55:31.084Z,1003.29
2018-09-21T15:56:31.073Z,1003.29
2018-09-21T15:57:31.057Z,1003.28
2018-09-21T15:58:31.055Z,1003.33
2018-09-21T15:59:31.026Z,1003.38
2018-09-21T16:00:31.005Z,1003.32
2018-09-21T16:01:30.991Z,1003.38
2018-09-21T16:02:30.974Z,1003.38
2018-09-21T16:03:31.029Z,1003.46
2018-09-21T16:04:30.968Z,1003.46
2018-09-21T16:05:30.997Z,1003.57
2018-09-21T16:06:30.913Z,1003.38
2018-09-21T16:07:30.894Z,1003.47
2018-09-21T16:08:30.886Z,1003.51
2018-09-21T16:09:30.871Z,1003.59
2018-09-21T16:10:30.870Z,1003.48
2018-09-21T16:11:30.848Z,1003.54
2018-09-21T16:12:30.835Z,1003.52
2018-09-21T16:13:30.818Z,1003.56
2018-09-21T16:14:30.846Z,1003.57
2018-09-21T16:15:30.800Z,1003.64
2018-09-21T16:16:30.774Z,1003.63
2018-09-21T16:17:30.754Z,1003.62
2018-09-21T16:18:30.741Z,1003.62
2018-09-21T16:19:30.748Z,1003.62
2018-09-21T16:20:30.696Z,1003.72
2018-09-21T16:21:30.692Z,1003.70
2018-09-21T16:22:30.668Z,1003.68
2018-09-21T16:23:30.651Z,1003.64
2018-09-21T16:24:30.638Z,1003.65
2018-09-21T16:25:30.625Z,1003.70
2018-09-21T16:26:30.601Z,1003.74
2018-09-21T16:27:30.603Z,1003.76
2018-09-21T16:28:30.582Z,1003.75
2018-09-21T16:29:30.573Z,1003.72
2018-09-21T16:30:30.545Z,1003.77
2018-09-21T16:31:30.516Z,1003.81
2018-09-21T16:32:30.515Z,1003.78
2018-09-21T16:33:30.522Z,1003.80
2018-09-21T16:34:30.530Z,1003.87
2018-09-21T16:35:30.854Z,1003.73
2018-09-21T16:36:30.495Z,1003.95
2018-09-21T16:37:30.479Z,1003.89
2018-09-21T16:38:30.401Z,1003.96
2018-09-21T16:39:30.390Z,1004.01
2018-09-21T16:40:30.369Z,1003.99
2018-09-21T16:41:30.369Z,1004.02
2018-09-21T16:42:30.334Z,1003.95
2018-09-21T16:43:30.318Z,1004.00
2018-09-21T16:44:30.314Z,1003.98
2018-09-21T16:45:30.293Z,1004.01
2018-09-21T16:46:30.281Z,1004.02
2018-09-21T16:47:30.255Z,1003.99
2018-09-21T16:48:30.244Z,1004.05
2018-09-21T16:49:30.226Z,1004.05
2018-09-21T16:50:30.211Z,1004.06
2018-09-21T16:51:30.240Z,1004.07
2018-09-21T16:52:30.190Z,1004.01
2018-09-21T16:53:30.170Z,1004.03
2018-09-21T16:54:30.147Z,1004.00
2018-09-21T16:55:30.130Z,1004.05
2018-09-21T16:56:30.106Z,1004.02
2018-09-21T16:57:30.133Z,1004.04
2018-09-21T16:58:30.078Z,1004.04
2018-09-21T16:59:30.056Z,1004.04
2018-09-21T17:00:30.041Z,1004.06
2018-09-21T17:01:30.022Z,1004.06
2018-09-21T17:02:30.031Z,1004.10
2018-09-21T17:03:29.992Z,1004.12
2018-09-21T17:04:30.057Z,1004.02
2018-09-21T17:05:29.958Z,1004.05
2018-09-21T17:06:29.942Z,1004.13
2018-09-21T17:07:29.941Z,1004.15
2018-09-21T17:08:29.906Z,1004.12
2018-09-21T17:09:29.896Z,1004.12
2018-09-21T17:10:29.878Z,1004.11
2018-09-21T17:11:29.859Z,1004.14
2018-09-21T17:12:29.838Z,1004.17
2018-09-21T17:13:29.840Z,1004.16
2018-09-21T17:14:29.809Z,1004.15
2018-09-21T17:15:29.831Z,1004.11
2018-09-21T17:16:29.778Z,1004.20
2018-09-21T17:17:29.756Z,1004.23
2018-09-21T17:18:29.750Z,1004.29
2018-09-21T17:19:29.733Z,1004.19
2018-09-21T17:20:29.739Z,1004.29
2018-09-21T17:21:29.744Z,1004.26
2018-09-21T17:22:29.744Z,1004.34
2018-09-21T17:23:29.722Z,1004.29
2018-09-21T17:24:29.692Z,1004.36
2018-09-21T17:25:29.647Z,1004.38
2018-09-21T17:26:29.607Z,1004.36
2018-09-21T17:27:29.590Z,1004.35
2018-09-21T17:28:29.587Z,1004.38
2018-09-21T17:29:29.557Z,1004.41
2018-09-21T17:30:29.539Z,1004.44
2018-09-21T17:31:29.553Z,1004.45
2018-09-21T17:32:29.511Z,1004.45
2018-09-21T17:33:29.485Z,1004.45
2018-09-21T17:34:29.481Z,1004.51
2018-09-21T17:35:29.453Z,1004.50
2018-09-21T17:36:29.438Z,1004.50
2018-09-21T17:37:29.422Z,1004.58
2018-09-21T17:38:29.402Z,1004.55
2018-09-21T17:39:29.394Z,1004.56
2018-09-21T17:40:29.371Z,1004.58
2018-09-21T17:41:29.352Z,1004.62
2018-09-21T17:42:29.333Z,1004.71
2018-09-21T17:43:29.318Z,1004.72
2018-09-21T17:44:29.311Z,1004.75
2018-09-21T17:45:29.288Z,1004.75
2018-09-21T17:46:29.267Z,1004.84
2018-09-21T17:47:29.250Z,1004.84
2018-09-21T17:48:29.227Z,1004.84
2018-09-21T17:49:29.215Z,1004.87
2018-09-21T17:50:29.207Z,1004.88
2018-09-21T17:51:29.180Z,1004.96
2018-09-21T17:52:29.195Z,1004.91
2018-09-21T17:53:29.144Z,1004.91
2018-09-21T17:54:29.126Z,1004.92
2018-09-21T17:55:29.135Z,1004.93
2018-09-21T17:56:29.091Z,1004.96
2018-09-21T17:57:29.077Z,1005.02
2018-09-21T17:58:29.075Z,1005.06
2018-09-21T17:59:29.052Z,1005.05
2018-09-21T18:00:29.039Z,1005.07
2018-09-21T18:01:29.018Z,1005.07
2018-09-21T18:02:28.991Z,1005.08
2018-09-21T18:03:28.998Z,1005.12
2018-09-21T18:04:29.001Z,1005.15
2018-09-21T18:05:28.999Z,1005.15
2018-09-21T18:06:29.000Z,1005.15
2018-09-21T18:07:29.011Z,1005.17
2018-09-21T18:08:28.950Z,1005.18
2018-09-21T18:09:28.868Z,1005.23
2018-09-21T18:10:28.859Z,1005.28
2018-09-21T18:11:28.845Z,1005.26
2018-09-21T18:12:28.815Z,1005.30
2018-09-21T18:13:28.807Z,1005.31
2018-09-21T18:14:28.783Z,1005.30
2018-09-21T18:15:28.764Z,1005.32
2018-09-21T18:16:28.820Z,1005.35
2018-09-21T18:17:28.728Z,1005.40
2018-09-21T18:18:28.711Z,1005.45
2018-09-21T18:19:28.696Z,1005.46
2018-09-21T18:20:28.679Z,1005.48
2018-09-21T18:21:28.698Z,1005.49
2018-09-21T18:22:28.643Z,1005.55
2018-09-21T18:23:39.655Z,1005.55
2018-09-21T18:24:28.608Z,1005.58
2018-09-21T18:25:28.639Z,1005.62
2018-09-21T18:26:28.572Z,1005.63
2018-09-21T18:27:28.565Z,1005.58
2018-09-21T18:28:28.539Z,1005.65
2018-09-21T18:29:28.519Z,1005.64
2018-09-21T18:30:28.502Z,1005.65
2018-09-21T18:31:28.504Z,1005.74
2018-09-21T18:32:28.478Z,1005.74
2018-09-21T18:33:28.448Z,1005.78
2018-09-21T18:34:28.435Z,1005.81
2018-09-21T18:35:28.415Z,1005.79
2018-09-21T18:36:28.397Z,1005.79
2018-09-21T18:37:28.421Z,1005.84
2018-09-21T18:38:28.361Z,1005.85
2018-09-21T18:39:28.348Z,1005.85
2018-09-21T18:40:28.328Z,1005.84
2018-09-21T18:41:28.308Z,1005.88
2018-09-21T18:42:28.291Z,1005.92
2018-09-21T18:43:28.284Z,1005.94
2018-09-21T18:44:28.256Z,1005.98
2018-09-21T18:45:28.238Z,1005.95
2018-09-21T18:46:28.222Z,1005.97
2018-09-21T18:47:28.205Z,1006.01
2018-09-21T18:48:28.210Z,1005.98
2018-09-21T18:49:28.200Z,1006.01
2018-09-21T18:50:28.263Z,1006.05
2018-09-21T18:51:28.180Z,1006.02
2018-09-21T18:52:28.160Z,1006.03
2018-09-21T18:53:28.156Z,1006.07
2018-09-21T18:54:28.077Z,1006.05
2018-09-21T18:55:28.059Z,1006.04
2018-09-21T18:56:28.047Z,1006.12
2018-09-21T18:57:28.025Z,1006.06
2018-09-21T18:58:28.022Z,1006.12
2018-09-21T18:59:27.990Z,1006.13
2018-09-21T19:00:27.971Z,1006.16
2018-09-21T19:01:27.970Z,1006.22
2018-09-21T19:02:27.934Z,1006.22
2018-09-21T19:03:27.919Z,1006.29
2018-09-21T19:04:27.908Z,1006.34
2018-09-21T19:05:27.881Z,1006.31
2018-09-21T19:06:27.864Z,1006.37
2018-09-21T19:07:27.847Z,1006.34
2018-09-21T19:08:27.829Z,1006.38
2018-09-21T19:09:27.819Z,1006.37
